메인 페이지
METAR-TAF:

METAR-TAF

공항 :

이르쿠츠크 국제공항

이르쿠츠크, 러시아

위도: 52-16N, 경도: 104-19E, 고도: 513m

현재 날씨관측

예보는 23분 전, 20:30시(UTC)에 발표되었습니다.
4kt
온도 13°C
습도 88%
기압 1009 hPa
시정 10km 이상
1500m 미만 상공 구름 및 적란운 없음

METAR: UIII 202030Z 10002MPS CAVOK 13/11 Q1009 R12/60D NOSIG RMK QFE715/0953

시각: 04:53 (20:53 UTC)

예보

예보는 53분 전, 20:00시(UTC)에 발표되었습니다.
예보 대상 시간: 20일 21시부터 21일 21시까지 (UTC)
동남동6kt
시정 10km 이상
1500m 미만 상공 구름 및 적란운 없음

TAF: UIII 202000Z 2021/2121 11003MPS CAVOK

4,000개 이상의 공항 관측 자료 및 예보 (METAR 및 TAF 보고).

지도상에서 검색 가능한 기상관측소가 노란 점과 빨간 점으로 표시되어 있습니다.

기상관측소 명을 보려면 표시 위로 마우스를 이동하세요.

날씨 관측과 예보를 보려면 클릭하세요.

지도 변경 : 확대하려면 엑스 표시가 있는 녹색 버튼, 축소하려면 빼기 표시가 있는 녹색 버튼, 다음 페이지의 지도를 보려면 녹색 화살표를 클릭하세요.


METAR-TAF: